createdAt,value
2019-05-31T00:01:27.033Z,96634.00
2019-05-31T00:03:59.360Z,96630.00
2019-05-31T00:06:31.653Z,96629.00
2019-05-31T00:09:03.887Z,96628.00
2019-05-31T00:11:35.918Z,96624.00
2019-05-31T00:14:19.774Z,96631.00
2019-05-31T00:16:41.746Z,96637.00
2019-05-31T00:19:13.765Z,96637.00
2019-05-31T00:21:45.659Z,96630.00
2019-05-31T00:24:17.938Z,96635.00
2019-05-31T00:26:50.550Z,96633.00
2019-05-31T00:29:22.533Z,96630.00
2019-05-31T00:31:55.206Z,96629.00
2019-05-31T00:34:30.681Z,96634.00
2019-05-31T00:37:03.283Z,96631.00
2019-05-31T00:39:35.603Z,96626.00
2019-05-31T00:42:07.834Z,96634.00
2019-05-31T00:44:39.827Z,96628.00
2019-05-31T00:47:17.286Z,96631.00
2019-05-31T00:49:49.637Z,96626.00
2019-05-31T00:52:21.980Z,96631.00
2019-05-31T00:54:54.255Z,96621.00
2019-05-31T00:57:26.665Z,96621.00
2019-05-31T00:59:59.026Z,96628.00
2019-05-31T01:02:30.934Z,96633.00
2019-05-31T01:05:03.355Z,96633.00
2019-05-31T01:07:35.380Z,96637.00
2019-05-31T01:10:09.497Z,96627.00
2019-05-31T01:12:41.621Z,96630.00
2019-05-31T01:15:13.886Z,96624.00
2019-05-31T01:17:46.388Z,96632.00
2019-05-31T01:20:18.770Z,96626.00
2019-05-31T01:22:50.700Z,96635.00
2019-05-31T01:25:22.595Z,96628.00
2019-05-31T01:27:54.540Z,96618.00
2019-05-31T01:30:26.783Z,96622.00
2019-05-31T01:32:59.650Z,96622.00
2019-05-31T01:35:32.126Z,96619.00
2019-05-31T01:38:04.412Z,96631.00
2019-05-31T01:40:36.773Z,96629.00
2019-05-31T01:43:13.549Z,96627.00
2019-05-31T01:45:42.394Z,96624.00
2019-05-31T01:48:14.718Z,96624.00
2019-05-31T01:50:47.369Z,96621.00
2019-05-31T01:53:19.277Z,96621.00
2019-05-31T01:55:51.208Z,96623.00
2019-05-31T01:58:23.169Z,96618.00
2019-05-31T02:00:55.500Z,96619.00
2019-05-31T02:03:27.952Z,96624.00
2019-05-31T02:06:00.692Z,96615.00
2019-05-31T02:08:32.605Z,96620.00
2019-05-31T02:11:06.648Z,96621.00
2019-05-31T02:13:39.145Z,96622.00
2019-05-31T02:16:12.370Z,96612.00
2019-05-31T02:18:44.746Z,96619.00
2019-05-31T02:21:16.836Z,96616.00
2019-05-31T02:23:48.667Z,96612.00
2019-05-31T02:26:24.235Z,96609.00
2019-05-31T02:28:57.924Z,96614.00
2019-05-31T02:31:31.132Z,96606.00
2019-05-31T02:34:02.992Z,96604.00
2019-05-31T02:36:35.266Z,96606.00
2019-05-31T02:39:10.047Z,96600.00
2019-05-31T02:41:42.600Z,96603.00
2019-05-31T02:44:16.057Z,96596.00
2019-05-31T02:46:49.141Z,96598.00
2019-05-31T02:49:21.315Z,96587.00
2019-05-31T02:51:54.283Z,96599.00
2019-05-31T02:54:26.802Z,96604.00
2019-05-31T02:56:59.490Z,96608.00
2019-05-31T02:59:32.365Z,96609.00
2019-05-31T03:02:06.302Z,96603.00
2019-05-31T03:04:39.546Z,96613.00
2019-05-31T03:07:15.928Z,96610.00
2019-05-31T03:09:54.177Z,96619.00
2019-05-31T03:12:26.922Z,96613.00
2019-05-31T03:15:00.272Z,96615.00
2019-05-31T03:17:32.421Z,96620.00
2019-05-31T03:20:04.804Z,96620.00
2019-05-31T03:22:37.593Z,96616.00
2019-05-31T03:25:09.645Z,96615.00
2019-05-31T03:27:41.812Z,96619.00
2019-05-31T03:30:19.049Z,96627.00
2019-05-31T03:32:47.596Z,96628.00
2019-05-31T03:35:27.587Z,96631.00
2019-05-31T03:37:53.426Z,96636.00
2019-05-31T03:40:27.496Z,96633.00
2019-05-31T03:42:59.602Z,96637.00
2019-05-31T03:45:31.444Z,96631.00
2019-05-31T03:48:03.732Z,96630.00
2019-05-31T03:50:35.764Z,96632.00
2019-05-31T03:53:07.985Z,96639.00
2019-05-31T03:55:40.128Z,96638.00
2019-05-31T03:58:12.005Z,96631.00
2019-05-31T04:00:54.050Z,96634.00
2019-05-31T04:03:27.728Z,96632.00
2019-05-31T04:05:59.587Z,96641.00
2019-05-31T04:08:31.759Z,96629.00
2019-05-31T04:11:03.640Z,96633.00
2019-05-31T04:13:35.864Z,96635.00
2019-05-31T04:16:07.971Z,96637.00
2019-05-31T04:18:40.281Z,96640.00
2019-05-31T04:21:12.438Z,96640.00
2019-05-31T04:23:44.605Z,96637.00
2019-05-31T04:26:17.833Z,96640.00
2019-05-31T04:28:50.012Z,96642.00
2019-05-31T04:31:21.975Z,96631.00
2019-05-31T04:33:54.168Z,96639.00
2019-05-31T04:36:26.724Z,96645.00
2019-05-31T04:39:00.118Z,96646.00
2019-05-31T04:41:32.555Z,96645.00
2019-05-31T04:44:04.936Z,96647.00
2019-05-31T04:46:36.779Z,96647.00
2019-05-31T04:49:08.668Z,96642.00
2019-05-31T04:51:40.890Z,96649.00
2019-05-31T04:54:13.194Z,96646.00
2019-05-31T04:56:45.379Z,96650.00
2019-05-31T04:59:18.490Z,96650.00
2019-05-31T05:01:55.735Z,96645.00
2019-05-31T05:04:28.055Z,96644.00
2019-05-31T05:06:59.946Z,96654.00
2019-05-31T05:09:32.946Z,96651.00
2019-05-31T05:12:05.259Z,96649.00
2019-05-31T05:14:37.234Z,96647.00
2019-05-31T05:17:24.499Z,96652.00
2019-05-31T05:19:43.280Z,96653.00
2019-05-31T05:22:16.695Z,96651.00
2019-05-31T05:24:49.063Z,96649.00
2019-05-31T05:27:21.267Z,96654.00
2019-05-31T05:29:53.870Z,96654.00
2019-05-31T05:32:26.064Z,96649.00
2019-05-31T05:34:58.784Z,96653.00
2019-05-31T05:37:30.927Z,96656.00
2019-05-31T05:40:02.884Z,96656.00
2019-05-31T05:42:35.083Z,96649.00
2019-05-31T05:45:08.519Z,96654.00
2019-05-31T05:47:47.608Z,96657.00
2019-05-31T05:50:14.658Z,96652.00
2019-05-31T05:52:47.089Z,96660.00
2019-05-31T05:55:20.432Z,96658.00
2019-05-31T05:57:52.900Z,96654.00
2019-05-31T06:00:25.775Z,96660.00
2019-05-31T06:03:00.919Z,96667.00
2019-05-31T06:05:32.184Z,96666.00
2019-05-31T06:08:04.072Z,96662.00
2019-05-31T06:10:35.969Z,96659.00
2019-05-31T06:13:07.907Z,96664.00
2019-05-31T06:15:40.766Z,96663.00
2019-05-31T06:18:13.247Z,96661.00
2019-05-31T06:20:45.371Z,96669.00
2019-05-31T06:23:17.526Z,96663.00
2019-05-31T06:25:49.425Z,96665.00
2019-05-31T06:28:21.604Z,96666.00
2019-05-31T06:30:53.825Z,96671.00
2019-05-31T06:33:27.551Z,96669.00
2019-05-31T06:35:59.739Z,96669.00
2019-05-31T06:38:32.923Z,96675.00
2019-05-31T06:41:08.895Z,96669.00
2019-05-31T06:43:40.970Z,96670.00
2019-05-31T06:46:13.313Z,96670.00
2019-05-31T06:48:55.318Z,96669.00
2019-05-31T06:51:33.066Z,96671.00
2019-05-31T06:54:19.533Z,96670.00
2019-05-31T06:56:52.021Z,96666.00
2019-05-31T06:59:23.929Z,96675.00
2019-05-31T07:01:55.862Z,96677.00
2019-05-31T07:04:29.151Z,96680.00
2019-05-31T07:07:01.978Z,96679.00
2019-05-31T07:09:34.981Z,96678.00
2019-05-31T07:12:16.899Z,96679.00
2019-05-31T07:14:41.655Z,96682.00
2019-05-31T07:17:14.040Z,96674.00
2019-05-31T07:19:46.308Z,96680.00
2019-05-31T07:22:18.298Z,96686.00
2019-05-31T07:24:50.670Z,96681.00
2019-05-31T07:27:22.588Z,96681.00
2019-05-31T07:29:54.716Z,96683.00
2019-05-31T07:32:27.005Z,96679.00
2019-05-31T07:34:58.928Z,96673.00
2019-05-31T07:37:34.908Z,96679.00
2019-05-31T07:40:04.396Z,96672.00
2019-05-31T07:42:37.177Z,96677.00
2019-05-31T07:45:09.398Z,96674.00
2019-05-31T07:47:41.953Z,96679.00
2019-05-31T07:50:14.749Z,96675.00
2019-05-31T07:52:46.638Z,96671.00
2019-05-31T07:55:18.869Z,96666.00
2019-05-31T07:57:51.303Z,96670.00
2019-05-31T08:00:24.551Z,96668.00
2019-05-31T08:02:57.153Z,96663.00
2019-05-31T08:05:29.415Z,96657.00
2019-05-31T08:08:02.714Z,96660.00
2019-05-31T08:10:35.434Z,96658.00
2019-05-31T08:13:08.177Z,96653.00
2019-05-31T08:15:40.025Z,96658.00
2019-05-31T08:18:11.921Z,96654.00
2019-05-31T08:20:44.075Z,96647.00
2019-05-31T08:23:15.968Z,96650.00
2019-05-31T08:25:48.145Z,96642.00
2019-05-31T08:28:20.034Z,96644.00
2019-05-31T08:30:52.007Z,96644.00
2019-05-31T08:33:23.926Z,96654.00
2019-05-31T08:35:56.257Z,96648.00
2019-05-31T08:38:28.496Z,96647.00
2019-05-31T08:41:00.533Z,96651.00
2019-05-31T08:43:32.852Z,96653.00
2019-05-31T08:46:06.183Z,96651.00
2019-05-31T08:48:38.695Z,96646.00
2019-05-31T08:51:11.037Z,96642.00
2019-05-31T08:53:43.625Z,96647.00
2019-05-31T08:56:15.838Z,96645.00
2019-05-31T08:58:47.710Z,96651.00
2019-05-31T09:01:19.920Z,96640.00
2019-05-31T09:03:51.801Z,96646.00
2019-05-31T09:06:24.165Z,96641.00
2019-05-31T09:08:56.474Z,96642.00
2019-05-31T09:11:32.131Z,96645.00
2019-05-31T09:14:02.403Z,96645.00
2019-05-31T09:16:36.486Z,96648.00
2019-05-31T09:19:08.827Z,96644.00
2019-05-31T09:21:40.659Z,96655.00
2019-05-31T09:24:12.519Z,96651.00
2019-05-31T09:26:44.411Z,96652.00
2019-05-31T09:29:16.753Z,96652.00
2019-05-31T09:31:48.911Z,96653.00
2019-05-31T09:34:21.130Z,96649.00
2019-05-31T09:36:53.243Z,96655.00
2019-05-31T09:39:25.865Z,96652.00
2019-05-31T09:41:58.636Z,96658.00
2019-05-31T09:44:30.962Z,96656.00
2019-05-31T09:47:04.045Z,96652.00
2019-05-31T09:49:37.628Z,96649.00
2019-05-31T09:52:09.725Z,96651.00
2019-05-31T09:54:49.741Z,96653.00
2019-05-31T09:57:15.237Z,96652.00
2019-05-31T09:59:47.403Z,96657.00
2019-05-31T10:02:19.525Z,96655.00
2019-05-31T10:04:53.469Z,96647.00
2019-05-31T10:07:25.396Z,96643.00
2019-05-31T10:09:57.293Z,96650.00
2019-05-31T10:12:29.155Z,96654.00
2019-05-31T10:15:01.512Z,96651.00
2019-05-31T10:17:34.458Z,96646.00
2019-05-31T10:20:07.321Z,96650.00
2019-05-31T10:22:40.295Z,96645.00
2019-05-31T10:25:13.741Z,96643.00
2019-05-31T10:27:45.914Z,96634.00
2019-05-31T10:30:20.168Z,96633.00
2019-05-31T10:32:52.296Z,96638.00
2019-05-31T10:35:25.004Z,96634.00
2019-05-31T10:37:56.837Z,96631.00
2019-05-31T10:40:28.698Z,96635.00
2019-05-31T10:43:01.802Z,96633.00
2019-05-31T10:45:34.127Z,96637.00
2019-05-31T10:48:07.893Z,96626.00
2019-05-31T10:50:52.885Z,96627.00
2019-05-31T10:53:13.573Z,96637.00
2019-05-31T10:55:45.432Z,96627.00
2019-05-31T10:58:18.307Z,96629.00
2019-05-31T11:00:50.454Z,96630.00
2019-05-31T11:03:22.309Z,96633.00
2019-05-31T11:05:54.503Z,96629.00
2019-05-31T11:08:26.342Z,96629.00
2019-05-31T11:10:58.692Z,96627.00
2019-05-31T11:13:30.840Z,96624.00
2019-05-31T11:16:02.754Z,96629.00
2019-05-31T11:18:35.479Z,96631.00
2019-05-31T11:21:07.737Z,96627.00
2019-05-31T11:23:39.863Z,96631.00
2019-05-31T11:26:12.072Z,96627.00
2019-05-31T11:28:44.301Z,96626.00
2019-05-31T11:31:16.735Z,96630.00
2019-05-31T11:34:17.294Z,96623.00
2019-05-31T11:36:22.756Z,96621.00
2019-05-31T11:38:54.608Z,96627.00
2019-05-31T11:41:27.045Z,96628.00
2019-05-31T11:43:58.876Z,96624.00
2019-05-31T11:46:30.808Z,96627.00
2019-05-31T11:49:04.556Z,96615.00
2019-05-31T11:51:37.023Z,96619.00
2019-05-31T11:54:09.168Z,96620.00
2019-05-31T11:56:44.012Z,96615.00
2019-05-31T11:59:15.400Z,96607.00
2019-05-31T12:01:48.444Z,96618.00
2019-05-31T12:04:20.417Z,96607.00
2019-05-31T12:06:52.278Z,96614.00
2019-05-31T12:09:24.151Z,96610.00
2019-05-31T12:11:56.059Z,96607.00
2019-05-31T12:14:28.224Z,96610.00
2019-05-31T12:17:00.109Z,96607.00
2019-05-31T12:19:32.040Z,96613.00
2019-05-31T12:22:03.995Z,96607.00
2019-05-31T12:24:36.524Z,96599.00
2019-05-31T12:27:08.854Z,96597.00
2019-05-31T12:29:41.632Z,96596.00
2019-05-31T12:32:14.282Z,96601.00
2019-05-31T12:34:46.493Z,96594.00
2019-05-31T12:37:18.848Z,96599.00
2019-05-31T12:39:52.509Z,96600.00
2019-05-31T12:42:24.278Z,96595.00
2019-05-31T12:44:56.440Z,96606.00
2019-05-31T12:47:55.846Z,96594.00
2019-05-31T12:50:36.462Z,96603.00
2019-05-31T12:53:08.639Z,96591.00
2019-05-31T12:55:40.853Z,96592.00
2019-05-31T12:58:12.880Z,96588.00
2019-05-31T13:00:45.402Z,96591.00
2019-05-31T13:03:17.662Z,96587.00
2019-05-31T13:05:49.864Z,96584.00
2019-05-31T13:08:22.259Z,96581.00
2019-05-31T13:10:54.109Z,96581.00
2019-05-31T13:13:26.127Z,96579.00
2019-05-31T13:15:59.330Z,96578.00
2019-05-31T13:18:31.903Z,96575.00
2019-05-31T13:21:04.913Z,96581.00
2019-05-31T13:23:36.917Z,96582.00
2019-05-31T13:26:08.793Z,96573.00
2019-05-31T13:28:41.237Z,96582.00
2019-05-31T13:31:13.097Z,96579.00
2019-05-31T13:33:46.547Z,96582.00
2019-05-31T13:36:18.501Z,96576.00
2019-05-31T13:38:51.272Z,96578.00
2019-05-31T13:41:23.254Z,96568.00
2019-05-31T13:43:55.872Z,96573.00
2019-05-31T13:46:28.155Z,96576.00
2019-05-31T13:49:00.309Z,96572.00
2019-05-31T13:51:32.144Z,96580.00
2019-05-31T13:54:04.343Z,96573.00
2019-05-31T13:56:36.581Z,96572.00
2019-05-31T13:59:11.731Z,96575.00
2019-05-31T14:01:42.974Z,96573.00
2019-05-31T14:04:14.848Z,96574.00
2019-05-31T14:06:47.703Z,96564.00
2019-05-31T14:09:20.089Z,96568.00
2019-05-31T14:11:52.467Z,96571.00
2019-05-31T14:14:24.503Z,96568.00
2019-05-31T14:16:56.915Z,96564.00
2019-05-31T14:19:32.011Z,96567.00
2019-05-31T14:22:03.562Z,96563.00
2019-05-31T14:24:36.006Z,96566.00
2019-05-31T14:27:07.863Z,96565.00
2019-05-31T14:29:40.098Z,96565.00
2019-05-31T14:32:11.945Z,96568.00
2019-05-31T14:34:43.937Z,96560.00
2019-05-31T14:37:15.772Z,96565.00
2019-05-31T14:39:48.240Z,96567.00
2019-05-31T14:42:20.692Z,96554.00
2019-05-31T14:44:52.675Z,96557.00
2019-05-31T14:47:24.570Z,96555.00
2019-05-31T14:49:57.265Z,96550.00
2019-05-31T14:52:29.653Z,96553.00
2019-05-31T14:55:03.369Z,96544.00
2019-05-31T14:57:35.514Z,96550.00
2019-05-31T15:00:07.862Z,96549.00
2019-05-31T15:02:40.481Z,96546.00
2019-05-31T15:05:13.391Z,96543.00
2019-05-31T15:07:45.963Z,96545.00
2019-05-31T15:10:17.868Z,96548.00
2019-05-31T15:12:51.638Z,96548.00
2019-05-31T15:15:23.629Z,96544.00
2019-05-31T15:17:56.286Z,96536.00
2019-05-31T15:20:28.267Z,96536.00
2019-05-31T15:23:04.557Z,96534.00
2019-05-31T15:25:34.118Z,96531.00
2019-05-31T15:28:06.253Z,96534.00
2019-05-31T15:31:37.942Z,96535.00
2019-05-31T15:34:53.926Z,96538.00
2019-05-31T15:37:34.416Z,96534.00
2019-05-31T15:40:13.081Z,96536.00
2019-05-31T15:42:49.180Z,96534.00
2019-05-31T15:45:22.925Z,96533.00
2019-05-31T15:47:55.358Z,96535.00
2019-05-31T15:50:27.465Z,96532.00
2019-05-31T15:53:10.100Z,96530.00
2019-05-31T15:55:32.870Z,96527.00
2019-05-31T15:58:05.778Z,96527.00
2019-05-31T16:00:38.836Z,96531.00
2019-05-31T16:03:11.154Z,96523.00
2019-05-31T16:05:43.114Z,96523.00
2019-05-31T16:08:15.254Z,96522.00
2019-05-31T16:10:47.197Z,96521.00
2019-05-31T16:13:19.616Z,96515.00
2019-05-31T16:15:51.496Z,96518.00
2019-05-31T16:18:23.405Z,96510.00
2019-05-31T16:20:55.241Z,96506.00
2019-05-31T16:23:27.152Z,96515.00
2019-05-31T16:26:00.069Z,96514.00
2019-05-31T16:28:32.293Z,96511.00
2019-05-31T16:31:04.938Z,96512.00
2019-05-31T16:33:37.801Z,96508.00
2019-05-31T16:36:09.679Z,96505.00
2019-05-31T16:38:42.014Z,96506.00
2019-05-31T16:41:14.294Z,96503.00
2019-05-31T16:43:46.466Z,96507.00
2019-05-31T16:46:18.304Z,96505.00
2019-05-31T16:48:50.234Z,96508.00
2019-05-31T16:51:25.979Z,96508.00
2019-05-31T16:53:56.765Z,96505.00
2019-05-31T16:56:28.902Z,96503.00
2019-05-31T16:59:00.791Z,96501.00
2019-05-31T17:01:32.651Z,96501.00
2019-05-31T17:04:06.248Z,96505.00
2019-05-31T17:06:38.536Z,96505.00
2019-05-31T17:09:11.219Z,96508.00
2019-05-31T17:11:43.530Z,96509.00
2019-05-31T17:14:15.745Z,96509.00
2019-05-31T17:16:48.092Z,96505.00
2019-05-31T17:19:20.716Z,96514.00
2019-05-31T17:21:53.639Z,96514.00
2019-05-31T17:24:40.139Z,96509.00
2019-05-31T17:26:59.418Z,96505.00
2019-05-31T17:29:31.320Z,96511.00
2019-05-31T17:32:03.192Z,96508.00
2019-05-31T17:34:42.581Z,96509.00
2019-05-31T17:37:09.596Z,96511.00
2019-05-31T17:39:41.519Z,96516.00
2019-05-31T17:42:13.908Z,96517.00
2019-05-31T17:44:45.884Z,96517.00
2019-05-31T17:47:18.090Z,96520.00
2019-05-31T17:49:50.231Z,96519.00
2019-05-31T17:52:22.082Z,96516.00
2019-05-31T17:54:58.185Z,96519.00
2019-05-31T17:57:42.961Z,96519.00
2019-05-31T18:00:02.765Z,96523.00
2019-05-31T18:02:35.006Z,96523.00
2019-05-31T18:05:12.806Z,96520.00
2019-05-31T18:07:43.094Z,96514.00
2019-05-31T18:10:20.104Z,96513.00
2019-05-31T18:12:52.731Z,96506.00
2019-05-31T18:15:24.603Z,96510.00
2019-05-31T18:17:56.527Z,96511.00
2019-05-31T18:20:29.338Z,96502.00
2019-05-31T18:23:01.860Z,96507.00
2019-05-31T18:25:36.904Z,96509.00
2019-05-31T18:28:10.011Z,96501.00
2019-05-31T18:30:46.672Z,96500.00
2019-05-31T18:33:17.382Z,96503.00
2019-05-31T18:35:49.853Z,96502.00
2019-05-31T18:38:22.420Z,96509.00
2019-05-31T18:40:55.195Z,96505.00
2019-05-31T18:43:27.722Z,96513.00
2019-05-31T18:46:00.644Z,96504.00
2019-05-31T18:48:33.992Z,96518.00
2019-05-31T18:51:06.976Z,96508.00
2019-05-31T18:53:39.283Z,96511.00
2019-05-31T18:56:11.538Z,96512.00
2019-05-31T18:58:43.662Z,96517.00
2019-05-31T19:01:17.053Z,96513.00
2019-05-31T19:03:49.692Z,96516.00
2019-05-31T19:06:23.258Z,96519.00
2019-05-31T19:08:55.408Z,96520.00
2019-05-31T19:11:27.433Z,96514.00
2019-05-31T19:13:59.828Z,96508.00
2019-05-31T19:16:31.704Z,96519.00
2019-05-31T19:19:03.636Z,96519.00
2019-05-31T19:21:36.729Z,96523.00
2019-05-31T19:24:09.126Z,96519.00
2019-05-31T19:26:42.020Z,96515.00
2019-05-31T19:29:15.916Z,96527.00
2019-05-31T19:31:49.466Z,96529.00
2019-05-31T19:34:22.218Z,96532.00
2019-05-31T19:36:55.504Z,96534.00
2019-05-31T19:39:28.302Z,96535.00
2019-05-31T19:42:01.323Z,96536.00
2019-05-31T19:44:34.204Z,96534.00
2019-05-31T19:47:06.509Z,96534.00
2019-05-31T19:49:39.205Z,96535.00
2019-05-31T19:52:11.543Z,96540.00
2019-05-31T19:54:43.397Z,96542.00
2019-05-31T19:57:16.806Z,96549.00
2019-05-31T19:59:49.010Z,96546.00
2019-05-31T20:02:21.927Z,96539.00
2019-05-31T20:04:54.755Z,96542.00
2019-05-31T20:07:28.653Z,96549.00
2019-05-31T20:10:02.529Z,96546.00
2019-05-31T20:12:34.685Z,96542.00
2019-05-31T20:15:07.663Z,96542.00
2019-05-31T20:17:40.100Z,96544.00
2019-05-31T20:20:12.956Z,96547.00
2019-05-31T20:22:46.200Z,96544.00
2019-05-31T20:25:21.993Z,96537.00
2019-05-31T20:27:53.289Z,96549.00
2019-05-31T20:30:33.328Z,96546.00
2019-05-31T20:33:03.669Z,96536.00
2019-05-31T20:38:12.805Z,96541.00
2019-05-31T20:40:44.876Z,96547.00
2019-05-31T20:43:18.773Z,96541.00
2019-05-31T20:45:53.066Z,96547.00
2019-05-31T20:48:27.159Z,96533.00
2019-05-31T20:50:59.271Z,96535.00
2019-05-31T20:53:52.335Z,96505.00
2019-05-31T20:56:25.948Z,96551.00
2019-05-31T20:58:58.068Z,96546.00
2019-05-31T21:01:33.602Z,96544.00
2019-05-31T21:04:05.475Z,96548.00
2019-05-31T22:21:57.242Z,96553.00
2019-05-31T22:24:30.496Z,96561.00
2019-05-31T22:27:03.448Z,96551.00
2019-05-31T22:29:37.097Z,96553.00
2019-05-31T22:32:14.375Z,96552.00
2019-05-31T22:34:46.598Z,96546.00
2019-05-31T22:37:19.191Z,96550.00
2019-05-31T22:39:51.050Z,96546.00
2019-05-31T22:42:24.281Z,96551.00
2019-05-31T22:44:56.657Z,96543.00
2019-05-31T22:47:28.941Z,96544.00
2019-05-31T22:50:00.810Z,96550.00
2019-05-31T22:52:33.548Z,96540.00
2019-05-31T22:55:05.761Z,96545.00
2019-05-31T22:57:38.105Z,96539.00
2019-05-31T23:00:10.540Z,96545.00
2019-05-31T23:02:42.763Z,96546.00
2019-05-31T23:05:14.848Z,96542.00
2019-05-31T23:07:47.004Z,96534.00
2019-05-31T23:10:18.998Z,96532.00
2019-05-31T23:13:00.737Z,96539.00
2019-05-31T23:15:25.091Z,96526.00
2019-05-31T23:17:57.310Z,96538.00
2019-05-31T23:20:29.221Z,96540.00
2019-05-31T23:23:01.965Z,96537.00
2019-05-31T23:25:35.391Z,96532.00
2019-05-31T23:28:07.427Z,96524.00
2019-05-31T23:30:39.837Z,96524.00
2019-05-31T23:33:12.103Z,96525.00
2019-05-31T23:35:44.016Z,96520.00
2019-05-31T23:38:16.171Z,96522.00
2019-05-31T23:40:48.700Z,96521.00
2019-05-31T23:43:21.995Z,96517.00
2019-05-31T23:45:54.130Z,96522.00
2019-05-31T23:48:26.275Z,96521.00
2019-05-31T23:50:58.623Z,96521.00
2019-05-31T23:53:31.155Z,96524.00
2019-05-31T23:56:03.042Z,96520.00
2019-05-31T23:58:35.343Z,96522.00
